Time;durP1;ratioP1;P1;durP2;ratioP2;P2;SDS_P1;SDS_P2;PMS_P1;PMS_P2;Temp;Humidity;BMP_temperature;BMP_pressure;BME280_temperature;BME280_humidity;BME280_pressure;Samples;Min_cycle;Max_cycle;Signal;HPM_P1;HPM_P2
2023/06/20 00:00:41;;;;;;;;;4.67;2.67;;;;;20.83;74.69;100601.34;5078849;27;45611;-70
2023/06/20 00:03:11;;;;;;;;;4.00;3.00;;;;;20.69;75.59;100596.59;5074994;27;45487;-71
2023/06/20 00:05:37;;;;;;;;;4.00;3.33;;;;;20.69;75.47;100592.19;5073160;28;45477;-72
2023/06/20 00:08:03;;;;;;;;;3.00;2.67;;;;;20.81;75.02;100598.78;5073495;28;45838;-71
2023/06/20 00:10:32;;;;;;;;;2.67;2.67;;;;;20.84;74.88;100593.31;5072703;28;46770;-70
2023/06/20 00:12:59;;;;;;;;;2.00;2.00;;;;;20.85;75.31;100594.16;5075160;27;45307;-71
2023/06/20 00:15:25;;;;;;;;;2.33;2.33;;;;;20.83;75.29;100588.91;5075159;28;45594;-73
2023/06/20 00:17:52;;;;;;;;;2.67;2.67;;;;;20.74;75.62;100578.69;5076398;28;45397;-69
2023/06/20 00:20:19;;;;;;;;;4.00;3.00;;;;;20.82;75.43;100583.66;5076401;28;47272;-70
2023/06/20 00:22:45;;;;;;;;;3.00;2.67;;;;;20.76;75.69;100568.81;5077256;28;45459;-70
2023/06/20 00:25:11;;;;;;;;;3.33;3.00;;;;;20.78;75.67;100572.28;5075945;28;45414;-72
2023/06/20 00:27:36;;;;;;;;;3.67;3.33;;;;;20.80;75.54;100569.56;5073120;28;45553;-71
2023/06/20 00:30:02;;;;;;;;;2.00;2.00;;;;;20.65;75.83;100537.34;5072849;28;48087;-71
2023/06/20 00:32:28;;;;;;;;;5.67;2.33;;;;;20.75;75.57;100551.13;5074327;28;45326;-71
2023/06/20 00:34:54;;;;;;;;;4.33;3.00;;;;;20.78;76.04;100574.94;5074296;28;45422;-71
2023/06/20 00:37:20;;;;;;;;;3.67;3.67;;;;;20.74;76.18;100581.34;5077772;28;45974;-72
2023/06/20 00:39:46;;;;;;;;;1.67;1.67;;;;;20.78;76.12;100580.25;5078192;28;45302;-74
2023/06/20 00:42:24;;;;;;;;;2.33;2.00;;;;;20.78;76.04;100571.41;5078373;28;45486;-72
2023/06/20 00:44:50;;;;;;;;;3.00;3.00;;;;;20.85;76.01;100580.84;5094330;27;45338;-72
2023/06/20 00:47:20;;;;;;;;;2.67;2.67;;;;;20.88;75.95;100581.59;5077155;27;45471;-73
2023/06/20 00:49:48;;;;;;;;;4.33;2.67;;;;;20.84;76.09;100569.34;5074654;28;45525;-73
2023/06/20 00:52:16;;;;;;;;;4.33;3.67;;;;;20.84;76.31;100580.00;5073239;28;45566;-71
2023/06/20 00:54:44;;;;;;;;;3.00;3.00;;;;;20.82;76.54;100565.88;5073606;28;45411;-72
2023/06/20 00:57:12;;;;;;;;;2.00;1.33;;;;;20.80;76.47;100545.59;5072266;27;46336;-72
2023/06/20 00:59:39;;;;;;;;;3.00;3.00;;;;;20.83;76.38;100554.28;5073306;28;46583;-71
2023/06/20 01:02:04;;;;;;;;;2.33;2.33;;;;;20.76;76.52;100558.16;5073450;28;45350;-71
2023/06/20 01:04:31;;;;;;;;;4.00;3.00;;;;;20.77;76.83;100553.72;5074079;28;45643;-70
2023/06/20 01:07:03;;;;;;;;;5.00;4.00;;;;;20.79;76.79;100571.34;5073936;28;45480;-71
2023/06/20 01:09:44;;;;;;;;;3.00;3.00;;;;;20.75;77.09;100565.28;5073891;27;45421;-71
2023/06/20 01:12:35;;;;;;;;;3.00;3.00;;;;;20.69;77.53;100573.56;5073377;28;45438;-73
2023/06/20 01:15:01;;;;;;;;;5.00;3.00;;;;;20.65;77.74;100569.28;5076998;27;45439;-71
2023/06/20 01:17:35;;;;;;;;;2.00;2.00;;;;;20.64;77.99;100562.22;5078263;27;45278;-70
2023/06/20 01:20:16;;;;;;;;;4.00;4.00;;;;;20.63;78.00;100571.13;5078001;27;46285;-71
2023/06/20 01:22:51;;;;;;;;;4.67;4.00;;;;;20.66;77.70;100568.34;5077053;28;45827;-72
2023/06/20 01:25:35;;;;;;;;;3.00;2.00;;;;;20.71;78.05;100570.81;5077868;27;45394;-71
2023/06/20 01:28:09;;;;;;;;;6.67;4.33;;;;;20.72;77.87;100564.56;5075886;28;45532;-72
2023/06/20 01:30:59;;;;;;;;;4.00;4.00;;;;;20.78;77.59;100558.09;5076741;27;45383;-71
2023/06/20 01:33:30;;;;;;;;;4.00;3.33;;;;;20.79;77.08;100551.88;5077183;27;45406;-70
2023/06/20 01:36:00;;;;;;;;;4.00;3.67;;;;;20.81;77.32;100550.88;5077108;27;45780;-70
2023/06/20 01:38:29;;;;;;;;;2.00;2.00;;;;;20.81;77.37;100555.28;5078846;28;45633;-70
2023/06/20 01:40:56;;;;;;;;;2.67;2.67;;;;;20.83;77.45;100548.13;5076805;27;45799;-71
2023/06/20 01:43:22;;;;;;;;;3.33;3.00;;;;;20.74;77.91;100557.38;5076922;27;45910;-71
2023/06/20 01:45:50;;;;;;;;;4.00;3.00;;;;;20.69;78.21;100567.34;5076954;27;45799;-71
2023/06/20 01:48:18;;;;;;;;;5.33;3.00;;;;;20.55;78.89;100554.59;5075687;28;45497;-70
2023/06/20 01:50:47;;;;;;;;;3.67;3.67;;;;;20.56;78.92;100560.81;5077220;27;46277;-72
2023/06/20 01:53:15;;;;;;;;;4.00;2.67;;;;;20.52;79.27;100555.59;5079389;27;45441;-71
2023/06/20 01:55:42;;;;;;;;;5.67;4.00;;;;;20.51;79.54;100563.63;5076308;27;45442;-70
2023/06/20 01:58:10;;;;;;;;;6.33;3.67;;;;;20.42;79.58;100572.00;5077697;28;45545;-70
2023/06/20 02:00:36;;;;;;;;;4.50;4.00;;;;;20.39;79.71;100575.66;5076316;27;45883;-70
2023/06/20 02:03:04;;;;;;;;;3.67;3.67;;;;;20.38;79.84;100562.41;5074923;28;45371;-71
2023/06/20 02:05:32;;;;;;;;;5.00;3.67;;;;;20.46;79.45;100558.50;5076235;28;45959;-72
2023/06/20 02:08:00;;;;;;;;;6.67;3.33;;;;;20.39;79.90;100548.19;5080948;28;45338;-70
2023/06/20 02:10:26;;;;;;;;;3.00;3.00;;;;;20.41;80.13;100562.31;5079031;27;46920;-70
2023/06/20 02:12:54;;;;;;;;;3.67;3.00;;;;;20.43;80.01;100550.66;5080366;27;45464;-71
2023/06/20 02:15:24;;;;;;;;;4.67;4.00;;;;;20.43;80.25;100542.69;5096778;27;45328;-71
2023/06/20 02:17:50;;;;;;;;;4.67;3.00;;;;;20.40;79.85;100544.59;5078646;27;45481;-72
2023/06/20 02:20:15;;;;;;;;;5.00;3.33;;;;;20.45;79.84;100547.94;5076308;28;45481;-71
2023/06/20 02:22:44;;;;;;;;;3.67;3.00;;;;;20.44;79.80;100535.56;5078002;28;45495;-72
2023/06/20 02:25:15;;;;;;;;;4.67;4.67;;;;;20.48;80.21;100538.03;5077855;28;45667;-70
2023/06/20 02:27:42;;;;;;;;;4.67;4.67;;;;;20.48;79.82;100535.38;5092241;27;45822;-72
2023/06/20 02:30:10;;;;;;;;;5.00;3.00;;;;;20.46;79.95;100534.56;5074700;28;48185;-71
2023/06/20 02:32:40;;;;;;;;;4.00;4.00;;;;;20.39;80.41;100524.25;5060033;28;45473;-72
2023/06/20 02:35:09;;;;;;;;;3.00;3.00;;;;;20.45;79.97;100527.50;5076055;28;45403;-73
2023/06/20 02:37:37;;;;;;;;;6.00;3.33;;;;;20.46;80.26;100526.59;5078650;28;45381;-73
2023/06/20 02:40:07;;;;;;;;;5.00;5.00;;;;;20.28;80.98;100508.75;5078947;28;46816;-73
2023/06/20 02:42:33;;;;;;;;;2.33;2.00;;;;;20.32;81.08;100523.66;5078763;27;45497;-73
2023/06/20 02:44:59;;;;;;;;;7.33;4.67;;;;;20.28;81.07;100522.91;5079505;28;45460;-73
2023/06/20 02:47:42;;;;;;;;;4.00;4.00;;;;;20.21;81.66;100537.38;5075159;28;45625;-72
2023/06/20 02:50:20;;;;;;;;;7.00;3.67;;;;;20.15;81.66;100524.34;5078437;28;46591;-72
2023/06/20 02:53:18;;;;;;;;;6.00;5.00;;;;;20.24;81.77;100534.59;5075179;28;45456;-72
2023/06/20 02:56:10;;;;;;;;;6.00;3.33;;;;;20.23;81.48;100527.53;5058184;28;45468;-71
2023/06/20 02:58:40;;;;;;;;;8.00;6.00;;;;;20.13;82.01;100521.75;5073505;27;45774;-71
2023/06/20 03:01:07;;;;;;;;;6.33;4.00;;;;;20.21;82.02;100520.56;5078829;28;45439;-71
2023/06/20 03:03:42;;;;;;;;;4.67;4.33;;;;;20.24;81.45;100509.78;5078501;27;45794;-71
2023/06/20 03:06:11;;;;;;;;;8.00;5.00;;;;;20.33;81.29;100520.94;5095251;27;45526;-71
2023/06/20 03:08:41;;;;;;;;;6.33;5.00;;;;;20.31;81.69;100528.09;5076021;27;45566;-71
2023/06/20 03:11:08;;;;;;;;;5.33;5.33;;;;;20.26;81.58;100522.13;5073940;28;47530;-72
2023/06/20 03:13:33;;;;;;;;;5.33;4.00;;;;;20.12;81.47;100484.56;5073525;27;45382;-71
2023/06/20 03:15:59;;;;;;;;;7.00;5.00;;;;;20.28;81.54;100509.59;5074090;28;45759;-70
2023/06/20 03:18:25;;;;;;;;;7.00;5.00;;;;;20.28;81.44;100514.06;5074476;28;45332;-70
2023/06/20 03:20:52;;;;;;;;;5.67;5.00;;;;;20.17;81.87;100509.19;5075177;27;45453;-70
2023/06/20 03:23:17;;;;;;;;;8.00;5.00;;;;;20.18;81.94;100523.34;5075293;27;45480;-70
2023/06/20 03:25:44;;;;;;;;;4.67;4.67;;;;;20.09;82.11;100508.63;5073955;28;45502;-71
2023/06/20 03:28:09;;;;;;;;;10.00;6.00;;;;;20.12;82.08;100500.53;5074091;28;45374;-70
2023/06/20 03:30:35;;;;;;;;;5.33;5.33;;;;;20.09;82.42;100500.66;5078420;27;45807;-70
2023/06/20 03:33:00;;;;;;;;;8.50;5.00;;;;;20.17;82.16;100503.00;5075268;28;45473;-71
2023/06/20 03:35:26;;;;;;;;;8.33;5.67;;;;;20.17;82.32;100495.91;5076711;28;45231;-71
2023/06/20 03:37:53;;;;;;;;;6.67;5.00;;;;;20.17;81.94;100484.38;5079110;28;45446;-72
2023/06/20 03:40:18;;;;;;;;;10.00;6.00;;;;;20.26;81.59;100489.31;5076938;27;46590;-72
2023/06/20 03:42:44;;;;;;;;;6.33;4.67;;;;;20.38;81.25;100499.44;5075128;28;45405;-71
2023/06/20 03:45:10;;;;;;;;;8.00;6.67;;;;;20.32;81.53;100502.38;5072604;27;45939;-72
2023/06/20 03:47:36;;;;;;;;;7.00;6.67;;;;;20.22;81.69;100504.56;5075334;27;45518;-71
2023/06/20 03:50:01;;;;;;;;;8.00;6.00;;;;;20.12;82.39;100498.75;5073035;28;47826;-73
2023/06/20 03:52:27;;;;;;;;;9.33;4.67;;;;;20.12;82.27;100503.19;5074145;28;45462;-70
2023/06/20 03:54:52;;;;;;;;;7.00;5.67;;;;;20.07;82.41;100495.44;5075031;27;45398;-71
2023/06/20 03:57:18;;;;;;;;;7.67;6.00;;;;;20.00;82.88;100504.53;5073730;28;45699;-70
2023/06/20 03:59:43;;;;;;;;;6.00;3.67;;;;;20.01;83.36;100502.78;5073875;27;45473;-70
2023/06/20 04:02:09;;;;;;;;;6.00;4.00;;;;;20.03;83.01;100506.25;5074600;28;45356;-72
2023/06/20 04:04:35;;;;;;;;;7.67;5.67;;;;;19.85;82.66;100466.19;5074787;27;45517;-72
2023/06/20 04:07:00;;;;;;;;;6.33;5.00;;;;;19.94;83.11;100488.88;5077766;28;46440;-72
2023/06/20 04:09:26;;;;;;;;;8.00;6.00;;;;;20.07;82.94;100492.75;5078800;27;45928;-72
2023/06/20 04:11:53;;;;;;;;;5.33;5.00;;;;;20.01;82.57;100492.16;5079144;27;45569;-72
2023/06/20 04:14:22;;;;;;;;;8.00;6.67;;;;;19.98;82.56;100503.78;5073509;28;45517;-72
2023/06/20 04:16:51;;;;;;;;;8.67;7.00;;;;;20.02;82.57;100525.75;5075405;27;45269;-72
2023/06/20 04:19:17;;;;;;;;;7.00;7.00;;;;;20.06;82.66;100522.06;5076248;27;45567;-72
2023/06/20 04:21:42;;;;;;;;;5.67;5.67;;;;;20.04;82.28;100510.63;5078950;27;45377;-70
2023/06/20 04:24:08;;;;;;;;;7.33;6.00;;;;;19.96;82.70;100499.44;5079155;28;45372;-69
2023/06/20 04:26:37;;;;;;;;;9.67;6.00;;;;;19.99;82.45;100496.66;5078831;28;45252;-69
2023/06/20 04:29:03;;;;;;;;;5.67;4.67;;;;;20.09;82.38;100516.59;5078660;28;45508;-70
2023/06/20 04:31:29;;;;;;;;;6.00;5.67;;;;;20.14;82.16;100506.66;5077422;28;45399;-70
2023/06/20 04:33:56;;;;;;;;;6.00;5.33;;;;;20.19;82.22;100509.97;5074749;28;45609;-71
2023/06/20 04:36:23;;;;;;;;;8.00;6.67;;;;;20.17;81.68;100508.31;5075495;28;45485;-71
2023/06/20 04:38:48;;;;;;;;;6.67;6.67;;;;;20.09;81.91;100504.19;5073915;27;47046;-69
2023/06/20 04:41:15;;;;;;;;;8.00;7.00;;;;;20.12;82.18;100513.81;5072286;28;45560;-70
2023/06/20 04:43:44;;;;;;;;;7.33;5.00;;;;;20.15;82.07;100518.19;5074319;27;45409;-70
2023/06/20 04:46:15;;;;;;;;;7.33;5.00;;;;;20.15;82.27;100503.06;5075820;27;45633;-71
2023/06/20 04:48:41;;;;;;;;;10.00;7.00;;;;;20.19;81.57;100502.00;5077046;28;47648;-72
2023/06/20 04:51:09;;;;;;;;;7.67;7.67;;;;;20.12;81.91;100503.19;5072737;27;45835;-72
2023/06/20 04:53:35;;;;;;;;;10.00;7.00;;;;;20.08;81.80;100494.47;5064642;28;45487;-72
2023/06/20 04:56:01;;;;;;;;;7.33;7.33;;;;;20.12;82.24;100498.75;5077595;28;45413;-70
2023/06/20 04:58:28;;;;;;;;;7.00;6.33;;;;;19.99;82.11;100472.72;5072724;28;46666;-69
2023/06/20 05:00:58;;;;;;;;;6.67;6.67;;;;;19.98;82.62;100473.66;5072960;28;45476;-73
2023/06/20 05:03:24;;;;;;;;;8.67;7.00;;;;;20.11;82.57;100496.16;5078171;28;45424;-71
2023/06/20 05:05:50;;;;;;;;;9.33;8.33;;;;;19.98;82.30;100478.97;5075726;27;45466;-70
2023/06/20 05:08:16;;;;;;;;;10.67;8.33;;;;;20.09;82.23;100503.31;5073800;27;46323;-67
2023/06/20 05:10:41;;;;;;;;;10.00;8.67;;;;;20.01;82.70;100490.34;5075369;27;45619;-69
2023/06/20 05:13:07;;;;;;;;;9.33;8.00;;;;;20.04;82.17;100500.84;5079068;27;45434;-69
2023/06/20 05:15:33;;;;;;;;;7.33;7.00;;;;;20.17;81.80;100503.88;5088109;27;45647;-69
2023/06/20 05:17:59;;;;;;;;;8.67;7.33;;;;;20.32;81.36;100511.22;5080359;27;46163;-71
2023/06/20 05:20:24;;;;;;;;;8.33;5.00;;;;;20.42;80.40;100494.88;5073447;27;45362;-69
2023/06/20 05:22:50;;;;;;;;;9.00;9.00;;;;;20.42;80.24;100486.88;5078215;27;45390;-68
2023/06/20 05:25:15;;;;;;;;;8.00;6.33;;;;;20.34;80.03;100488.06;5074969;27;45346;-69
2023/06/20 05:27:42;;;;;;;;;7.67;7.67;;;;;20.33;80.45;100494.34;5078098;27;45583;-70
2023/06/20 05:30:11;;;;;;;;;7.33;7.33;;;;;20.48;80.20;100497.28;5082069;27;45425;-70
2023/06/20 05:32:37;;;;;;;;;9.33;8.33;;;;;20.29;80.29;100479.44;5085751;27;45561;-69
2023/06/20 05:35:05;;;;;;;;;11.67;7.67;;;;;20.42;80.16;100492.19;5085168;27;45788;-69
2023/06/20 05:37:30;;;;;;;;;9.33;7.00;;;;;20.45;80.32;100490.25;5075578;27;47664;-70
2023/06/20 05:39:57;;;;;;;;;10.00;7.67;;;;;20.51;79.81;100495.31;5078588;27;45926;-71
2023/06/20 05:42:22;;;;;;;;;11.33;8.33;;;;;20.58;79.55;100473.81;5083076;27;45441;-70
2023/06/20 05:44:48;;;;;;;;;7.67;7.00;;;;;20.71;79.03;100469.69;5085984;27;45452;-70
2023/06/20 05:47:17;;;;;;;;;12.33;8.33;;;;;20.76;78.52;100462.34;5084422;27;46084;-68
2023/06/20 05:49:46;;;;;;;;;5.00;4.00;;;;;20.93;77.86;100465.13;5080085;27;45809;-70
2023/06/20 05:52:12;;;;;;;;;9.00;7.00;;;;;21.07;77.18;100479.59;5088382;27;45355;-71
2023/06/20 05:54:41;;;;;;;;;7.00;7.00;;;;;21.17;76.95;100473.78;5098731;27;45468;-69
2023/06/20 05:57:07;;;;;;;;;10.67;6.00;;;;;21.29;76.31;100483.00;5097763;27;45427;-68
2023/06/20 05:59:33;;;;;;;;;10.33;9.33;;;;;21.26;75.98;100491.16;5098022;27;45722;-69
2023/06/20 06:01:59;;;;;;;;;11.00;9.00;;;;;21.27;75.73;100478.69;5095279;27;45799;-70
2023/06/20 06:04:27;;;;;;;;;15.33;11.33;;;;;21.35;75.58;100485.38;5094246;27;45448;-71
2023/06/20 06:06:53;;;;;;;;;10.33;7.00;;;;;21.33;75.42;100481.06;5077408;27;46148;-70
2023/06/20 06:09:20;;;;;;;;;13.67;10.33;;;;;21.47;74.58;100483.97;5075460;28;45458;-72
2023/06/20 06:11:45;;;;;;;;;8.00;7.67;;;;;21.61;74.50;100478.00;5075619;28;46079;-69
2023/06/20 06:14:12;;;;;;;;;11.00;9.00;;;;;21.90;74.17;100479.25;5075321;28;45499;-70
2023/06/20 06:16:37;;;;;;;;;9.00;8.67;;;;;21.91;73.72;100478.31;5078875;28;45337;-70
2023/06/20 06:19:03;;;;;;;;;10.50;10.00;;;;;22.00;72.99;100475.19;5080757;28;45432;-70
2023/06/20 06:21:30;;;;;;;;;11.00;8.00;;;;;21.90;73.01;100473.94;5078557;28;45540;-70
2023/06/20 06:23:55;;;;;;;;;11.00;10.00;;;;;21.83;73.32;100476.94;5076624;28;45496;-70
2023/06/20 06:26:21;;;;;;;;;13.00;10.33;;;;;21.85;72.95;100475.06;5077356;27;45960;-70
2023/06/20 06:28:46;;;;;;;;;13.00;9.33;;;;;21.95;73.04;100471.88;5079085;28;45364;-70
2023/06/20 06:31:15;;;;;;;;;13.00;10.33;;;;;22.14;72.49;100481.63;5080546;27;45306;-70
2023/06/20 06:33:42;;;;;;;;;11.33;10.33;;;;;22.15;72.33;100476.22;5076885;27;45422;-71
2023/06/20 06:36:09;;;;;;;;;11.67;9.00;;;;;22.34;71.88;100486.84;5073899;27;45441;-70
2023/06/20 06:38:35;;;;;;;;;13.67;11.67;;;;;22.49;70.97;100492.34;5060708;28;45426;-70
2023/06/20 06:41:02;;;;;;;;;10.67;10.00;;;;;22.68;70.17;100492.25;5056751;28;45552;-70
2023/06/20 06:43:27;;;;;;;;;13.00;10.67;;;;;22.72;70.23;100504.50;5056667;28;45270;-70
2023/06/20 06:45:53;;;;;;;;;11.00;11.00;;;;;22.63;69.79;100511.19;5058762;28;45527;-71
2023/06/20 06:48:19;;;;;;;;;10.00;10.00;;;;;22.60;70.03;100511.34;5059921;28;45481;-70
2023/06/20 06:50:45;;;;;;;;;14.33;10.33;;;;;22.54;70.05;100495.63;5055555;28;45429;-74
2023/06/20 06:53:11;;;;;;;;;16.00;12.00;;;;;22.64;70.24;100491.56;5054599;28;45753;-72
2023/06/20 06:55:37;;;;;;;;;14.33;11.67;;;;;22.55;69.93;100470.69;5055363;28;46234;-70
2023/06/20 06:58:03;;;;;;;;;10.00;9.67;;;;;22.68;70.18;100482.44;5037066;28;45906;-71
2023/06/20 07:00:29;;;;;;;;;15.33;12.67;;;;;22.74;68.98;100476.78;5057551;28;45446;-71
2023/06/20 07:02:54;;;;;;;;;10.00;10.00;;;;;22.53;69.47;100441.41;5054902;28;45419;-71
2023/06/20 07:05:20;;;;;;;;;15.67;12.67;;;;;22.72;68.91;100461.78;5062330;28;46502;-72
2023/06/20 07:07:45;;;;;;;;;12.67;12.67;;;;;22.91;69.48;100486.56;5076702;27;45421;-72
2023/06/20 07:10:11;;;;;;;;;12.67;11.33;;;;;22.84;68.63;100463.81;5077981;27;45369;-72
2023/06/20 07:12:38;;;;;;;;;14.67;13.33;;;;;22.96;68.37;100478.31;5076095;28;45457;-72
2023/06/20 07:15:04;;;;;;;;;13.33;11.33;;;;;22.92;68.23;100456.28;5074098;28;47793;-73
2023/06/20 07:17:30;;;;;;;;;15.67;12.67;;;;;23.05;67.86;100475.19;5075733;28;45800;-70
2023/06/20 07:19:55;;;;;;;;;14.00;13.33;;;;;23.10;67.64;100488.28;5074109;28;45533;-71
2023/06/20 07:22:21;;;;;;;;;14.00;11.33;;;;;23.13;67.06;100494.31;5074137;28;46001;-73
2023/06/20 07:24:48;;;;;;;;;12.67;12.33;;;;;23.27;67.13;100501.59;5075673;27;47026;-73
2023/06/20 07:27:14;;;;;;;;;14.33;13.00;;;;;23.18;66.39;100473.59;5076187;28;45709;-72
2023/06/20 07:29:41;;;;;;;;;19.33;15.33;;;;;23.20;65.64;100469.00;5077987;28;45374;-72
2023/06/20 07:32:06;;;;;;;;;17.67;13.33;;;;;23.42;65.94;100502.53;5079729;27;45458;-72
2023/06/20 07:34:36;;;;;;;;;16.33;12.33;;;;;23.40;65.46;100504.47;5079747;27;45568;-71
2023/06/20 07:37:05;;;;;;;;;14.00;13.33;;;;;23.46;65.77;100525.50;5078025;28;45365;-71
2023/06/20 07:39:41;;;;;;;;;13.67;13.67;;;;;23.39;65.48;100530.31;5075170;27;45922;-70
2023/06/20 07:42:07;;;;;;;;;15.00;15.00;;;;;23.34;65.83;100535.03;5075400;28;45532;-72
2023/06/20 07:44:32;;;;;;;;;19.00;15.00;;;;;23.37;65.84;100540.25;5078459;28;45726;-71
2023/06/20 07:46:58;;;;;;;;;20.00;18.00;;;;;23.40;65.96;100540.06;5075058;28;45446;-72
2023/06/20 07:49:31;;;;;;;;;16.67;12.67;;;;;23.29;66.20;100540.63;5075609;27;45510;-74
2023/06/20 07:51:56;;;;;;;;;16.00;14.67;;;;;23.21;66.41;100529.50;5075344;28;45341;-70
2023/06/20 07:54:22;;;;;;;;;14.00;14.00;;;;;23.21;66.35;100534.84;5072986;28;46643;-70
2023/06/20 07:56:48;;;;;;;;;17.33;16.00;;;;;23.24;66.16;100526.66;5074995;28;45373;-70
2023/06/20 07:59:13;;;;;;;;;15.00;13.67;;;;;23.43;66.17;100542.56;5075170;27;45907;-70
2023/06/20 08:01:39;;;;;;;;;14.33;12.33;;;;;23.53;65.67;100540.25;5074832;28;45739;-71
2023/06/20 08:04:05;;;;;;;;;16.33;15.00;;;;;23.55;65.46;100521.47;5074379;27;45921;-71
2023/06/20 08:06:30;;;;;;;;;18.33;15.33;;;;;23.64;64.96;100543.19;5072667;28;45496;-70
2023/06/20 08:08:56;;;;;;;;;16.33;15.67;;;;;23.57;64.73;100523.09;5075035;28;45332;-70
2023/06/20 08:11:23;;;;;;;;;15.67;13.00;;;;;23.65;64.42;100522.66;5090786;27;45454;-71
2023/06/20 08:13:49;;;;;;;;;17.67;13.67;;;;;23.74;63.98;100526.69;5074520;28;46313;-70
2023/06/20 08:16:15;;;;;;;;;19.67;15.33;;;;;23.77;64.20;100534.50;5070009;28;45774;-71
2023/06/20 08:18:40;;;;;;;;;22.67;18.67;;;;;23.79;63.85;100519.25;5064464;28;45507;-72
2023/06/20 08:21:06;;;;;;;;;18.00;17.00;;;;;23.94;63.70;100523.72;5060007;28;45413;-72
2023/06/20 08:23:36;;;;;;;;;20.00;17.67;;;;;24.07;63.52;100523.88;5058390;28;46003;-71
2023/06/20 08:26:02;;;;;;;;;17.33;15.67;;;;;23.99;63.49;100518.09;5058589;28;45488;-71
2023/06/20 08:28:28;;;;;;;;;16.00;16.00;;;;;24.02;63.75;100521.47;5056811;28;45420;-71
2023/06/20 08:30:53;;;;;;;;;15.33;15.33;;;;;24.03;63.57;100520.50;5057325;28;45482;-71
2023/06/20 08:33:20;;;;;;;;;16.33;15.67;;;;;23.93;63.24;100508.63;5053271;28;45560;-70
2023/06/20 08:35:50;;;;;;;;;17.33;17.33;;;;;24.10;63.31;100510.31;5053916;28;45794;-72
2023/06/20 08:38:16;;;;;;;;;16.67;14.33;;;;;24.26;62.65;100510.31;5053915;28;45494;-71
2023/06/20 08:40:42;;;;;;;;;19.00;16.67;;;;;24.39;62.55;100505.06;5054532;28;45296;-71
2023/06/20 08:43:14;;;;;;;;;17.67;14.00;;;;;24.45;62.26;100510.09;5057956;28;46317;-72
2023/06/20 08:45:40;;;;;;;;;18.67;18.00;;;;;24.48;62.37;100504.56;5056989;28;45335;-73
2023/06/20 08:48:06;;;;;;;;;32.00;24.67;;;;;24.58;61.96;100499.53;5063456;28;45358;-72
2023/06/20 08:50:32;;;;;;;;;17.67;16.67;;;;;24.41;61.88;100449.63;5070185;27;45494;-72
2023/06/20 08:53:03;;;;;;;;;14.67;14.67;;;;;24.74;61.42;100481.56;5069090;28;47773;-72
2023/06/20 08:55:30;;;;;;;;;19.00;15.00;;;;;24.84;61.17;100476.50;5073931;28;45786;-72
2023/06/20 08:57:56;;;;;;;;;16.33;15.33;;;;;24.97;60.72;100491.72;5073745;28;45559;-70
2023/06/20 09:00:23;;;;;;;;;15.33;15.33;;;;;24.95;61.15;100480.25;5075989;28;45674;-71
2023/06/20 09:02:52;;;;;;;;;15.67;15.67;;;;;25.06;60.72;100492.13;5076740;28;46284;-72
2023/06/20 09:05:18;;;;;;;;;14.67;14.33;;;;;25.01;60.65;100462.94;5073814;28;45423;-72
2023/06/20 09:07:46;;;;;;;;;20.67;19.00;;;;;25.20;60.93;100478.75;5074492;27;45465;-73
2023/06/20 09:10:23;;;;;;;;;19.67;17.67;;;;;25.13;60.79;100472.88;5073571;28;45493;-72
2023/06/20 09:12:58;;;;;;;;;16.00;13.67;;;;;25.14;60.92;100474.59;5077254;27;45436;-71
2023/06/20 09:15:26;;;;;;;;;18.33;17.67;;;;;25.08;60.87;100479.47;5074073;27;45425;-73
2023/06/20 09:18:01;;;;;;;;;16.00;15.33;;;;;25.07;61.05;100486.66;5076982;28;45311;-73
2023/06/20 09:20:29;;;;;;;;;20.00;17.00;;;;;25.04;61.26;100475.28;5077613;28;45660;-73
2023/06/20 09:22:55;;;;;;;;;21.33;17.33;;;;;24.96;61.42;100473.94;5079105;27;45408;-70
2023/06/20 09:25:23;;;;;;;;;20.67;15.67;;;;;24.87;61.75;100455.75;5095281;27;45273;-72
2023/06/20 09:27:50;;;;;;;;;19.00;16.00;;;;;25.10;61.76;100477.56;5077202;27;45446;-72
2023/06/20 09:30:16;;;;;;;;;17.00;17.00;;;;;25.08;61.58;100468.75;5076373;27;45432;-71
2023/06/20 09:32:42;;;;;;;;;21.33;16.00;;;;;24.96;61.51;100439.13;5072485;28;46778;-73
2023/06/20 09:35:13;;;;;;;;;14.00;13.00;;;;;25.01;61.55;100451.34;5073857;27;45445;-73
2023/06/20 09:37:44;;;;;;;;;20.67;19.00;;;;;25.02;61.04;100437.88;5075535;28;45496;-72
2023/06/20 09:40:16;;;;;;;;;18.67;16.00;;;;;25.08;61.70;100460.72;5074253;27;45906;-72
2023/06/20 09:42:44;;;;;;;;;19.33;17.33;;;;;25.06;61.32;100459.97;5075512;27;45593;-73
2023/06/20 09:45:12;;;;;;;;;15.33;13.33;;;;;25.06;60.66;100454.63;5075849;28;45944;-73
2023/06/20 09:47:39;;;;;;;;;19.00;18.33;;;;;25.10;60.36;100453.44;5077254;27;45469;-70
2023/06/20 09:50:19;;;;;;;;;19.00;18.33;;;;;25.18;59.98;100465.44;5079493;27;45449;-71
2023/06/20 09:52:54;;;;;;;;;16.67;15.67;;;;;25.23;59.87;100459.78;5078950;27;46658;-72
2023/06/20 09:55:22;;;;;;;;;15.67;15.67;;;;;25.11;59.94;100439.97;5078247;27;45689;-72
2023/06/20 09:57:51;;;;;;;;;14.33;14.00;;;;;25.29;59.97;100466.56;5078997;28;45362;-72
2023/06/20 10:00:17;;;;;;;;;15.67;13.33;;;;;25.33;59.36;100462.75;5080455;28;45513;-72
2023/06/20 10:02:45;;;;;;;;;19.67;14.00;;;;;25.35;58.76;100464.38;5080282;28;45328;-71
2023/06/20 10:05:13;;;;;;;;;16.67;13.33;;;;;25.62;58.70;100490.34;5076690;28;45380;-73
2023/06/20 10:07:41;;;;;;;;;14.67;13.67;;;;;25.75;58.80;100493.97;5076403;28;45556;-72
2023/06/20 10:10:07;;;;;;;;;18.33;17.00;;;;;25.90;57.51;100485.91;5080481;28;45526;-72
2023/06/20 10:12:34;;;;;;;;;19.00;15.67;;;;;26.23;56.92;100498.91;5079346;27;46306;-71
2023/06/20 10:15:02;;;;;;;;;14.00;14.00;;;;;26.42;56.33;100501.22;5076622;28;45431;-70
2023/06/20 10:17:39;;;;;;;;;15.00;14.67;;;;;26.60;56.15;100513.41;5093777;27;45356;-71
2023/06/20 10:20:09;;;;;;;;;17.00;15.33;;;;;26.81;55.59;100499.44;5077000;28;45608;-71
2023/06/20 10:22:37;;;;;;;;;18.33;15.33;;;;;26.86;55.53;100498.16;5074641;28;45497;-71
2023/06/20 10:25:11;;;;;;;;;15.67;15.00;;;;;27.12;55.16;100508.03;5092919;27;45274;-72
2023/06/20 10:28:01;;;;;;;;;22.67;18.33;;;;;27.30;54.56;100522.91;5075297;28;45425;-72
2023/06/20 10:30:57;;;;;;;;;17.00;16.67;;;;;27.41;53.65;100520.31;5076972;28;45379;-71
2023/06/20 10:33:23;;;;;;;;;15.50;14.00;;;;;27.39;53.00;100529.47;5075190;28;46389;-72
2023/06/20 10:36:01;;;;;;;;;12.75;12.75;;;;;27.46;51.68;100531.59;5076887;28;45424;-72
2023/06/20 10:38:28;;;;;;;;;14.75;12.00;;;;;27.49;50.47;100509.84;5076848;28;45532;-70
2023/06/20 10:41:24;;;;;;;;;14.00;12.50;;;;;27.60;49.68;100524.38;5074864;28;45548;-71
2023/06/20 10:43:52;;;;;;;;;11.50;11.50;;;;;27.50;50.35;100499.94;5066422;28;45905;-72
2023/06/20 10:46:20;;;;;;;;;18.00;12.00;;;;;27.61;49.42;100491.94;5076282;28;45384;-71
2023/06/20 10:48:45;;;;;;;;;14.25;13.25;;;;;27.86;49.46;100520.66;5077697;28;45408;-71
2023/06/20 10:51:11;;;;;;;;;15.75;13.50;;;;;28.00;48.77;100514.25;5074902;28;45334;-72
2023/06/20 10:53:40;;;;;;;;;13.75;12.50;;;;;28.01;48.49;100502.50;5075895;28;46243;-72
2023/06/20 10:56:06;;;;;;;;;14.50;12.00;;;;;27.98;47.96;100509.94;5070320;27;45438;-72
2023/06/20 10:58:31;;;;;;;;;11.00;10.25;;;;;27.94;47.52;100505.75;5059643;28;45512;-71
2023/06/20 11:00:57;;;;;;;;;12.75;12.75;;;;;27.88;48.56;100536.66;5073167;28;45327;-74
2023/06/20 11:03:27;;;;;;;;;10.00;10.00;;;;;27.91;48.72;100531.06;5074382;28;47588;-73
2023/06/20 11:05:56;;;;;;;;;12.00;11.75;;;;;28.02;48.77;100527.56;5075493;28;45404;-73
2023/06/20 11:08:25;;;;;;;;;12.75;11.75;;;;;28.17;48.40;100530.97;5075764;27;45241;-72
2023/06/20 11:10:50;;;;;;;;;13.50;13.50;;;;;28.22;48.25;100524.25;5075726;27;45298;-72
2023/06/20 11:13:16;;;;;;;;;12.75;12.00;;;;;28.11;48.04;100499.97;5079421;27;45223;-73
2023/06/20 11:15:42;;;;;;;;;13.25;12.25;;;;;28.16;47.97;100535.47;5078272;27;45478;-75
2023/06/20 11:18:09;;;;;;;;;10.75;9.00;;;;;27.77;48.19;100509.66;5077385;27;45417;-73
2023/06/20 11:20:37;;;;;;;;;9.75;9.00;;;;;27.79;48.99;100508.59;5075093;27;45422;-72